Time;durP1;ratioP1;P1;durP2;ratioP2;P2;SDS_P1;SDS_P2;PMS_P1;PMS_P2;Temp;Humidity;BMP_temperature;BMP_pressure;BME280_temperature;BME280_humidity;BME280_pressure;Samples;Min_cycle;Max_cycle;Signal;HPM_P1;HPM_P2
2021/09/10 00:01:26;;;;;;;10.52;9.43;;;20.00;95.90;;;;;;4944689;28;20457;-80
2021/09/10 00:03:52;;;;;;;7.57;6.45;;;20.10;97.60;;;;;;4940411;28;20626;-79
2021/09/10 00:06:17;;;;;;;8.18;6.53;;;20.20;96.30;;;;;;4925581;28;20085;-80
2021/09/10 00:08:43;;;;;;;12.25;8.10;;;20.20;96.30;;;;;;4916636;28;20027;-79
2021/09/10 00:11:11;;;;;;;9.10;5.72;;;20.20;96.00;;;;;;4947415;28;20023;-81
2021/09/10 00:13:36;;;;;;;10.18;5.63;;;20.20;96.10;;;;;;4931102;28;20031;-79
2021/09/10 00:16:02;;;;;;;9.07;6.55;;;20.20;96.20;;;;;;4954932;28;20444;-79
2021/09/10 00:18:27;;;;;;;6.32;4.97;;;20.20;96.30;;;;;;4927183;28;20035;-79
2021/09/10 00:20:53;;;;;;;8.25;5.40;;;20.10;96.60;;;;;;4933564;28;20062;-80
2021/09/10 00:23:18;;;;;;;6.25;5.65;;;20.20;96.90;;;;;;4929722;28;20035;-79
2021/09/10 00:25:44;;;;;;;8.02;5.63;;;20.20;96.60;;;;;;4934623;28;20058;-80
2021/09/10 00:28:09;;;;;;;9.80;6.60;;;20.20;96.60;;;;;;4930773;28;20043;-79
2021/09/10 00:30:35;;;;;;;8.02;5.15;;;20.20;96.70;;;;;;4933125;28;20043;-79
2021/09/10 00:33:00;;;;;;;7.28;5.95;;;20.30;96.40;;;;;;4942671;28;20039;-80
2021/09/10 00:35:26;;;;;;;9.07;6.07;;;20.30;96.30;;;;;;4937378;28;20030;-80
2021/09/10 00:37:51;;;;;;;6.75;6.03;;;20.30;96.60;;;;;;4934905;28;20395;-81
2021/09/10 00:40:17;;;;;;;7.38;5.72;;;20.20;97.00;;;;;;4930420;28;20026;-80
2021/09/10 00:42:42;;;;;;;7.00;5.55;;;20.20;97.10;;;;;;4943319;28;20031;-79
2021/09/10 00:45:08;;;;;;;7.57;5.28;;;20.10;96.80;;;;;;4926808;28;20511;-81
2021/09/10 00:47:34;;;;;;;6.93;5.88;;;20.00;96.80;;;;;;4925391;28;20035;-80
2021/09/10 00:49:59;;;;;;;11.65;7.32;;;20.00;97.10;;;;;;4957853;28;20506;-81
2021/09/10 00:52:25;;;;;;;9.32;6.20;;;20.20;97.00;;;;;;4944558;28;20043;-80
2021/09/10 00:54:51;;;;;;;7.07;5.30;;;20.10;97.30;;;;;;4932827;29;20040;-80
2021/09/10 00:57:18;;;;;;;9.30;5.28;;;20.10;96.90;;;;;;4953871;28;20031;-80
2021/09/10 00:59:44;;;;;;;11.27;6.13;;;20.30;97.10;;;;;;4910140;28;20031;-79
2021/09/10 01:02:09;;;;;;;7.00;5.40;;;20.20;97.10;;;;;;4937585;28;20024;-79
2021/09/10 01:04:35;;;;;;;9.13;6.28;;;20.20;97.20;;;;;;4927712;28;20045;-80
2021/09/10 01:07:00;;;;;;;9.25;6.82;;;20.10;97.40;;;;;;4948901;28;20023;-79
2021/09/10 01:09:26;;;;;;;9.20;6.90;;;20.10;97.20;;;;;;4939292;28;20027;-80
2021/09/10 01:11:51;;;;;;;11.77;7.85;;;20.00;97.10;;;;;;4933303;28;20027;-79
2021/09/10 01:14:18;;;;;;;9.65;5.88;;;20.00;97.30;;;;;;4937726;28;20015;-81
2021/09/10 01:16:45;;;;;;;11.65;7.35;;;20.00;97.60;;;;;;4936322;28;20443;-80
2021/09/10 01:19:23;;;;;;;9.25;7.53;;;20.00;97.80;;;;;;4918997;29;20090;-79
2021/09/10 01:21:53;;;;;;;11.85;7.88;;;20.00;97.90;;;;;;4904134;29;20476;-80
2021/09/10 01:24:24;;;;;;;9.25;6.55;;;20.00;97.90;;;;;;4950388;28;20079;-80
2021/09/10 01:26:50;;;;;;;11.50;7.57;;;20.00;97.70;;;;;;4916927;28;20066;-79
2021/09/10 01:29:15;;;;;;;9.73;6.40;;;19.90;97.70;;;;;;4931500;29;20051;-80
2021/09/10 01:31:41;;;;;;;10.52;7.43;;;19.90;97.60;;;;;;4900948;29;20395;-80
2021/09/10 01:37:28;;;;;;;13.93;7.20;;;19.90;97.70;;;;;;4925335;29;20518;-80
2021/09/10 01:39:54;;;;;;;10.23;7.00;;;19.90;98.00;;;;;;4919389;28;20043;-80
2021/09/10 01:42:19;;;;;;;8.02;5.72;;;20.00;97.80;;;;;;4927976;29;20059;-80
2021/09/10 01:44:45;;;;;;;8.80;7.43;;;19.90;98.10;;;;;;4926657;29;20050;-81
2021/09/10 01:47:10;;;;;;;9.02;6.00;;;19.90;98.20;;;;;;4920410;28;20035;-80
2021/09/10 01:49:36;;;;;;;6.82;6.18;;;20.00;98.20;;;;;;4947510;28;20087;-80
2021/09/10 01:52:02;;;;;;;9.73;5.70;;;20.00;98.10;;;;;;4935300;28;20028;-80
2021/09/10 01:54:28;;;;;;;12.77;7.28;;;20.10;98.20;;;;;;4936743;28;20037;-80
2021/09/10 01:57:01;;;;;;;14.27;8.85;;;20.00;97.90;;;;;;4905230;29;20031;-81
2021/09/10 01:59:27;;;;;;;10.73;7.30;;;20.00;98.70;;;;;;4927767;28;20038;-80
2021/09/10 02:01:52;;;;;;;13.13;7.45;;;20.00;98.70;;;;;;4927523;28;20573;-80
2021/09/10 02:04:18;;;;;;;9.77;6.53;;;20.00;98.40;;;;;;4925006;28;20474;-79
2021/09/10 02:06:44;;;;;;;11.73;7.53;;;20.10;98.90;;;;;;4937696;28;20038;-80
2021/09/10 02:09:10;;;;;;;7.50;6.32;;;20.10;98.50;;;;;;4919002;29;21170;-82
2021/09/10 02:11:36;;;;;;;7.30;5.40;;;20.10;98.30;;;;;;4918832;29;20035;-80
2021/09/10 02:14:02;;;;;;;8.93;6.10;;;20.10;98.50;;;;;;4915474;29;20035;-80
2021/09/10 02:16:27;;;;;;;9.63;6.40;;;20.10;98.40;;;;;;4916488;29;20026;-80
2021/09/10 02:18:53;;;;;;;6.32;5.47;;;20.10;98.60;;;;;;4898379;28;20388;-80
2021/09/10 02:21:18;;;;;;;8.85;7.22;;;20.10;98.40;;;;;;4903559;28;20487;-80
2021/09/10 02:23:44;;;;;;;12.25;5.78;;;20.10;98.80;;;;;;4932035;29;20592;-82
2021/09/10 02:26:09;;;;;;;11.63;7.10;;;20.10;98.50;;;;;;4927757;29;21232;-80
2021/09/10 02:28:35;;;;;;;8.82;6.38;;;20.00;98.20;;;;;;4915470;29;20035;-81
2021/09/10 02:31:00;;;;;;;9.57;6.82;;;20.10;98.40;;;;;;4912165;29;20031;-79
2021/09/10 02:33:27;;;;;;;8.50;6.55;;;20.00;98.50;;;;;;4910177;29;20112;-80
2021/09/10 02:35:54;;;;;;;8.75;6.03;;;20.00;98.50;;;;;;4909841;29;20027;-80
2021/09/10 02:38:20;;;;;;;11.13;6.78;;;19.90;98.70;;;;;;4911524;28;20395;-80
2021/09/10 02:40:46;;;;;;;9.82;6.55;;;20.00;98.70;;;;;;4922420;28;20030;-80
2021/09/10 02:43:11;;;;;;;8.73;6.07;;;20.00;98.50;;;;;;4951038;28;20077;-79
2021/09/10 02:45:37;;;;;;;8.68;6.65;;;19.80;98.40;;;;;;4937317;28;20039;-80
2021/09/10 02:48:02;;;;;;;11.05;7.65;;;19.70;99.00;;;;;;4925677;28;20027;-88
2021/09/10 02:50:28;;;;;;;10.77;7.38;;;19.70;99.60;;;;;;4957219;28;20040;-89
2021/09/10 02:52:53;;;;;;;9.57;8.65;;;19.60;98.80;;;;;;4939455;28;20031;-88
2021/09/10 02:55:19;;;;;;;10.60;8.55;;;19.50;99.20;;;;;;4957338;28;20027;-85
2021/09/10 02:57:45;;;;;;;11.35;9.20;;;19.50;99.10;;;;;;4914656;29;20033;-88
2021/09/10 03:00:11;;;;;;;12.95;9.15;;;19.40;98.90;;;;;;4930553;28;20038;-88
2021/09/10 03:02:37;;;;;;;8.00;7.20;;;19.20;98.90;;;;;;4943676;28;20047;-87
2021/09/10 03:05:03;;;;;;;14.20;9.63;;;19.20;98.90;;;;;;4979200;28;20034;-88
2021/09/10 03:07:29;;;;;;;13.80;10.13;;;19.10;99.90;;;;;;4933719;28;20030;-87
2021/09/10 03:09:55;;;;;;;12.82;9.98;;;19.10;98.90;;;;;;4945867;28;20081;-89
2021/09/10 03:12:20;;;;;;;13.13;10.68;;;19.00;99.20;;;;;;4927075;28;20046;-86
2021/09/10 03:14:46;;;;;;;15.52;10.63;;;18.90;99.50;;;;;;4943680;28;20031;-88
2021/09/10 03:17:12;;;;;;;13.80;10.65;;;18.90;98.90;;;;;;4926900;28;20406;-89
2021/09/10 03:19:39;;;;;;;16.30;11.05;;;18.80;99.90;;;;;;4919116;29;20031;-88
2021/09/10 03:22:05;;;;;;;13.13;10.90;;;18.80;99.90;;;;;;4928699;28;20550;-88
2021/09/10 03:24:30;;;;;;;12.18;8.80;;;18.90;99.90;;;;;;4940901;28;20042;-85
2021/09/10 03:26:56;;;;;;;13.82;10.80;;;18.90;98.80;;;;;;4912089;29;20040;-87
2021/09/10 03:29:22;;;;;;;8.30;5.75;;;18.90;99.90;;;;;;4929408;28;20106;-87
2021/09/10 03:31:47;;;;;;;10.10;8.07;;;19.00;99.20;;;;;;4924985;28;20026;-87
2021/09/10 03:34:13;;;;;;;11.05;8.23;;;19.00;98.40;;;;;;4931628;28;20027;-87
2021/09/10 03:36:38;;;;;;;6.57;5.90;;;19.00;99.10;;;;;;4934043;28;20027;-87
2021/09/10 03:39:04;;;;;;;13.00;9.95;;;18.80;98.80;;;;;;4936838;28;20106;-87
2021/09/10 03:41:29;;;;;;;11.90;10.52;;;18.90;98.50;;;;;;4944910;28;20106;-89
2021/09/10 03:43:55;;;;;;;12.45;10.00;;;18.70;98.50;;;;;;4936192;28;20038;-88
2021/09/10 03:46:22;;;;;;;14.13;10.63;;;18.80;99.90;;;;;;4930379;28;20121;-90
2021/09/10 03:48:48;;;;;;;14.82;10.50;;;18.60;99.60;;;;;;4922586;28;20046;-88
2021/09/10 03:51:15;;;;;;;15.10;10.60;;;18.70;99.70;;;;;;4938842;28;20035;-90
2021/09/10 03:53:40;;;;;;;13.57;10.00;;;18.60;99.90;;;;;;4927696;28;20067;-89
2021/09/10 03:56:06;;;;;;;11.93;9.15;;;18.60;99.10;;;;;;4929995;28;20066;-89
2021/09/10 03:58:31;;;;;;;16.90;11.98;;;18.50;99.70;;;;;;4941597;28;20487;-89
2021/09/10 04:00:57;;;;;;;15.13;11.57;;;18.50;99.90;;;;;;4952100;28;20111;-89
2021/09/10 04:03:22;;;;;;;14.00;10.88;;;18.40;99.90;;;;;;4956780;28;20041;-89
2021/09/10 04:05:48;;;;;;;14.93;11.82;;;18.40;99.50;;;;;;4944669;28;20042;-89
2021/09/10 04:08:14;;;;;;;14.68;11.80;;;18.30;99.90;;;;;;4944353;28;20026;-88
2021/09/10 04:10:39;;;;;;;14.10;11.05;;;18.40;99.90;;;;;;4967253;28;20034;-87
2021/09/10 04:13:05;;;;;;;14.40;11.57;;;18.40;99.40;;;;;;4945972;28;20436;-89
2021/09/10 04:15:31;;;;;;;21.75;12.55;;;18.20;99.50;;;;;;4939240;28;20031;-86
2021/09/10 04:17:56;;;;;;;15.38;11.90;;;18.10;98.80;;;;;;4934892;28;20097;-89
2021/09/10 04:20:22;;;;;;;17.70;12.93;;;18.10;99.90;;;;;;4941968;28;20037;-90
2021/09/10 04:22:47;;;;;;;15.57;12.32;;;18.10;99.90;;;;;;4938383;28;20547;-89
2021/09/10 04:25:13;;;;;;;15.23;11.73;;;18.10;99.50;;;;;;4943911;28;20038;-89
2021/09/10 04:27:38;;;;;;;16.73;10.50;;;18.10;99.80;;;;;;4943993;28;20031;-89
2021/09/10 04:30:05;;;;;;;19.35;12.65;;;18.30;99.90;;;;;;4941037;28;20380;-89
2021/09/10 04:32:31;;;;;;;12.95;10.38;;;18.30;99.90;;;;;;4945299;28;20135;-90
2021/09/10 04:34:57;;;;;;;10.48;8.23;;;18.30;99.80;;;;;;4914675;28;20051;-88
2021/09/10 04:37:23;;;;;;;12.98;10.52;;;18.30;99.90;;;;;;4940167;28;20030;-88
2021/09/10 04:39:49;;;;;;;16.88;11.95;;;18.30;99.60;;;;;;4961942;28;20050;-89
2021/09/10 04:42:15;;;;;;;14.00;12.15;;;18.20;99.50;;;;;;4945795;28;20027;-88
2021/09/10 04:44:40;;;;;;;12.50;9.82;;;18.10;99.30;;;;;;4944518;28;20045;-88
2021/09/10 04:47:06;;;;;;;16.83;12.43;;;18.00;99.20;;;;;;4953961;28;20027;-88
2021/09/10 04:49:31;;;;;;;15.98;12.07;;;18.00;99.70;;;;;;4937892;28;20026;-88
2021/09/10 04:51:57;;;;;;;16.83;12.88;;;17.90;99.90;;;;;;4948888;28;20015;-89
2021/09/10 04:54:22;;;;;;;19.75;13.07;;;17.80;99.90;;;;;;4944751;28;20982;-88
2021/09/10 04:56:48;;;;;;;17.75;13.38;;;17.80;99.90;;;;;;4943816;28;20035;-87
2021/09/10 04:59:13;;;;;;;17.48;13.65;;;17.80;99.90;;;;;;4946596;28;20168;-89
2021/09/10 05:01:39;;;;;;;20.77;14.93;;;17.70;99.90;;;;;;4949890;28;20034;-89
2021/09/10 05:04:04;;;;;;;16.67;13.43;;;17.70;99.90;;;;;;4922046;28;20038;-89
2021/09/10 05:06:30;;;;;;;22.30;14.77;;;17.70;99.90;;;;;;4929069;29;20035;-89
2021/09/10 05:08:57;;;;;;;18.98;13.43;;;17.70;99.90;;;;;;4929044;28;20121;-90
2021/09/10 05:11:22;;;;;;;16.38;13.48;;;17.70;99.90;;;;;;4913544;28;20057;-89
2021/09/10 05:13:55;;;;;;;13.55;11.57;;;17.70;99.90;;;;;;4930225;28;20063;-89
2021/09/10 05:16:21;;;;;;;12.35;9.70;;;17.90;99.90;;;;;;4946118;28;20074;-86
2021/09/10 05:18:46;;;;;;;14.70;12.00;;;17.90;99.90;;;;;;4936839;28;20459;-88
2021/09/10 05:21:12;;;;;;;9.82;7.35;;;18.10;99.90;;;;;;4916277;28;20126;-87
2021/09/10 05:23:41;;;;;;;14.13;9.48;;;18.10;99.90;;;;;;4925333;28;20039;-89
2021/09/10 05:26:07;;;;;;;15.68;12.52;;;18.10;99.90;;;;;;4926225;28;20444;-87
2021/09/10 05:28:37;;;;;;;17.55;12.00;;;18.10;99.90;;;;;;4928654;28;20048;-88
2021/09/10 05:31:03;;;;;;;13.02;10.07;;;18.10;99.90;;;;;;4938248;28;20053;-89
2021/09/10 05:33:32;;;;;;;11.70;10.05;;;18.10;99.90;;;;;;4914435;29;20087;-90
2021/09/10 05:35:58;;;;;;;14.55;11.38;;;18.10;99.90;;;;;;4920814;28;20027;-89
2021/09/10 05:38:23;;;;;;;11.45;10.25;;;18.10;99.90;;;;;;4934588;28;20867;-87
2021/09/10 05:40:49;;;;;;;20.65;12.73;;;18.10;99.90;;;;;;4937450;28;20031;-87
2021/09/10 05:43:15;;;;;;;10.95;9.43;;;18.10;99.90;;;;;;4933276;28;20066;-88
2021/09/10 05:45:46;;;;;;;11.85;10.63;;;18.10;99.90;;;;;;4934839;28;20129;-88
2021/09/10 05:48:11;;;;;;;7.88;7.07;;;18.10;99.90;;;;;;4917041;28;20589;-87
2021/09/10 05:50:37;;;;;;;19.88;13.38;;;18.10;99.90;;;;;;4932887;29;20037;-89
2021/09/10 05:53:03;;;;;;;15.68;12.85;;;18.00;99.90;;;;;;4934637;28;20364;-85
2021/09/10 05:55:28;;;;;;;19.55;13.80;;;17.90;99.90;;;;;;4925118;28;20035;-87
2021/09/10 05:57:54;;;;;;;16.15;13.98;;;18.00;99.90;;;;;;4944328;28;20487;-88
2021/09/10 06:00:20;;;;;;;17.55;14.25;;;18.00;99.90;;;;;;4934676;28;20038;-88
2021/09/10 06:02:45;;;;;;;12.68;10.80;;;18.00;99.90;;;;;;4929504;28;20035;-89
2021/09/10 06:05:11;;;;;;;12.63;8.65;;;18.00;99.90;;;;;;4922704;28;20042;-89
2021/09/10 06:07:36;;;;;;;14.52;13.02;;;18.00;99.90;;;;;;4924905;28;20122;-87
2021/09/10 06:10:02;;;;;;;12.45;8.70;;;18.20;99.90;;;;;;4951060;28;20061;-88
2021/09/10 06:12:40;;;;;;;18.67;14.30;;;18.30;99.90;;;;;;4932061;28;20038;-88
2021/09/10 06:15:06;;;;;;;19.38;14.18;;;18.30;99.90;;;;;;4914905;28;20626;-87
2021/09/10 06:17:31;;;;;;;16.50;14.55;;;18.40;99.90;;;;;;4931993;28;20125;-88
2021/09/10 06:19:57;;;;;;;14.80;11.80;;;18.50;99.90;;;;;;4892361;28;20039;-89
2021/09/10 06:22:22;;;;;;;13.02;10.75;;;18.50;99.90;;;;;;4900810;28;20030;-89
2021/09/10 06:24:48;;;;;;;16.63;14.02;;;18.70;99.90;;;;;;4934335;28;20037;-86
2021/09/10 06:27:14;;;;;;;16.08;14.30;;;18.80;99.90;;;;;;4915238;28;20037;-89
2021/09/10 06:29:39;;;;;;;13.98;11.32;;;18.90;99.90;;;;;;4931931;28;20123;-88
2021/09/10 06:32:06;;;;;;;14.82;11.25;;;19.00;99.90;;;;;;4933903;28;20499;-85
2021/09/10 06:34:31;;;;;;;10.43;9.18;;;19.00;99.90;;;;;;4926282;28;20066;-89
2021/09/10 06:36:57;;;;;;;13.73;10.10;;;19.20;99.90;;;;;;4941211;28;20034;-89
2021/09/10 06:39:22;;;;;;;17.02;10.38;;;19.20;99.90;;;;;;4947386;28;20502;-88
2021/09/10 06:41:50;;;;;;;7.90;6.80;;;19.30;99.90;;;;;;4938558;28;20135;-89
2021/09/10 06:44:15;;;;;;;12.70;10.27;;;19.40;99.50;;;;;;4935784;28;20391;-88
2021/09/10 06:46:41;;;;;;;11.15;9.68;;;19.50;99.50;;;;;;4921094;28;20085;-88
2021/09/10 06:49:07;;;;;;;15.40;10.55;;;19.60;99.90;;;;;;4938699;28;20038;-88
2021/09/10 06:51:33;;;;;;;11.15;9.57;;;19.80;99.90;;;;;;4940731;28;20046;-89
2021/09/10 06:53:59;;;;;;;11.23;9.95;;;19.80;99.90;;;;;;4947751;28;20499;-88
2021/09/10 06:56:24;;;;;;;14.45;11.00;;;19.90;99.90;;;;;;4922651;28;20028;-89
2021/09/10 06:58:51;;;;;;;13.18;10.38;;;19.90;99.90;;;;;;4931270;28;20082;-89
2021/09/10 07:01:17;;;;;;;9.25;8.23;;;20.10;99.90;;;;;;4924418;28;20069;-88
2021/09/10 07:03:42;;;;;;;8.43;7.20;;;20.10;99.90;;;;;;4954919;28;20058;-88
2021/09/10 07:06:08;;;;;;;8.45;6.90;;;20.30;99.90;;;;;;4931602;28;20074;-88
2021/09/10 07:08:33;;;;;;;9.32;7.45;;;20.40;99.90;;;;;;4930043;28;20042;-88
2021/09/10 07:11:02;;;;;;;11.55;8.60;;;20.60;99.90;;;;;;4931124;28;20077;-88
2021/09/10 07:13:30;;;;;;;7.53;5.75;;;20.70;99.90;;;;;;4928854;29;20035;-88
2021/09/10 07:15:56;;;;;;;6.72;5.97;;;20.90;99.90;;;;;;4923864;28;21543;-87
2021/09/10 07:18:22;;;;;;;13.27;6.57;;;21.10;99.60;;;;;;4941107;28;20033;-87
2021/09/10 07:20:48;;;;;;;9.23;6.85;;;21.30;99.90;;;;;;4936999;28;20106;-87
2021/09/10 07:23:14;;;;;;;8.95;6.22;;;21.40;99.90;;;;;;4940703;28;20078;-88
2021/09/10 07:25:40;;;;;;;9.90;6.68;;;21.50;99.70;;;;;;4932409;28;20134;-87
2021/09/10 07:28:13;;;;;;;10.40;6.90;;;21.60;99.80;;;;;;4942241;28;20602;-87
2021/09/10 07:30:38;;;;;;;7.95;5.50;;;21.80;99.90;;;;;;4951141;28;20121;-87
2021/09/10 07:33:04;;;;;;;8.00;5.65;;;22.10;99.90;;;;;;4945435;28;20110;-87
2021/09/10 07:35:29;;;;;;;7.40;5.50;;;22.10;99.20;;;;;;4937031;28;20500;-87
2021/09/10 07:37:55;;;;;;;8.68;5.57;;;22.30;99.40;;;;;;4922340;28;20031;-87
2021/09/10 07:40:21;;;;;;;7.53;5.53;;;22.30;98.70;;;;;;4923941;29;20032;-87
2021/09/10 07:42:46;;;;;;;10.02;5.10;;;22.50;98.40;;;;;;4929830;28;20495;-87
2021/09/10 07:45:12;;;;;;;7.65;4.90;;;22.70;98.50;;;;;;4934728;28;20999;-87
2021/09/10 07:47:44;;;;;;;5.60;4.88;;;22.80;98.70;;;;;;4925439;28;20039;-86
2021/09/10 07:50:09;;;;;;;5.93;5.10;;;22.90;98.40;;;;;;4943828;28;20042;-87
2021/09/10 07:52:35;;;;;;;5.55;3.78;;;22.90;98.20;;;;;;4948065;28;20720;-87
2021/09/10 07:55:01;;;;;;;5.03;3.92;;;23.20;97.40;;;;;;4936480;28;20031;-87
2021/09/10 07:57:26;;;;;;;6.50;3.63;;;23.30;97.30;;;;;;4925687;29;20040;-87
2021/09/10 07:59:58;;;;;;;4.68;3.70;;;23.30;97.00;;;;;;4924158;28;20030;-86
2021/09/10 08:02:26;;;;;;;7.80;4.07;;;23.50;96.90;;;;;;4928229;28;20035;-87
2021/09/10 08:04:51;;;;;;;4.75;3.75;;;23.60;96.60;;;;;;4929691;28;20130;-86
2021/09/10 08:07:17;;;;;;;4.93;3.67;;;23.80;96.50;;;;;;4962430;28;20087;-86
2021/09/10 08:09:42;;;;;;;5.25;4.47;;;23.90;96.10;;;;;;4942675;28;20122;-85
2021/09/10 08:12:08;;;;;;;5.03;4.00;;;24.00;96.10;;;;;;4944169;28;20113;-86
2021/09/10 08:14:34;;;;;;;5.18;3.42;;;24.10;95.90;;;;;;4943054;28;20038;-86
2021/09/10 08:16:59;;;;;;;4.60;3.50;;;24.20;95.80;;;;;;4923173;28;20052;-87
2021/09/10 08:19:25;;;;;;;6.65;3.80;;;24.40;95.40;;;;;;4934519;28;20019;-87
2021/09/10 08:21:51;;;;;;;7.68;3.53;;;24.50;95.70;;;;;;4914445;28;20080;-87
2021/09/10 08:24:17;;;;;;;5.45;3.17;;;24.60;95.10;;;;;;4933317;28;20034;-87
2021/09/10 08:26:43;;;;;;;3.92;3.00;;;24.70;95.00;;;;;;4940713;28;20421;-87
2021/09/10 08:29:08;;;;;;;6.43;3.22;;;24.80;94.80;;;;;;4948982;28;20037;-87
2021/09/10 08:31:34;;;;;;;6.50;3.22;;;24.90;94.40;;;;;;4932651;28;20513;-87
2021/09/10 08:34:02;;;;;;;3.97;2.65;;;25.00;94.60;;;;;;4946983;28;20074;-88
2021/09/10 08:36:28;;;;;;;5.93;2.63;;;25.30;94.60;;;;;;4936001;28;20035;-88
2021/09/10 08:38:54;;;;;;;7.28;3.85;;;25.40;94.40;;;;;;4941631;28;20031;-87
2021/09/10 08:41:22;;;;;;;4.95;3.22;;;25.30;95.80;;;;;;4941211;28;20382;-88
2021/09/10 08:43:49;;;;;;;3.78;3.15;;;25.40;94.40;;;;;;4937878;28;20835;-88
2021/09/10 08:46:15;;;;;;;3.42;3.13;;;25.50;94.40;;;;;;4930629;28;20482;-88
2021/09/10 08:48:47;;;;;;;6.95;3.70;;;25.70;94.30;;;;;;4906486;28;20042;-88
2021/09/10 08:51:13;;;;;;;4.68;4.05;;;25.80;93.80;;;;;;4927400;28;20077;-88
2021/09/10 08:53:41;;;;;;;5.60;3.38;;;25.90;93.30;;;;;;4926908;28;20506;-87
2021/09/10 08:56:09;;;;;;;6.38;4.03;;;25.80;94.30;;;;;;4949674;28;20030;-88
2021/09/10 08:58:35;;;;;;;5.05;3.00;;;25.90;95.20;;;;;;4948869;28;20429;-88
2021/09/10 09:01:01;;;;;;;4.65;3.53;;;25.90;94.40;;;;;;4927986;28;20115;-88
2021/09/10 09:03:29;;;;;;;5.88;2.92;;;26.00;93.30;;;;;;4926253;28;20035;-88
2021/09/10 09:05:55;;;;;;;4.50;2.88;;;26.00;94.20;;;;;;4940403;28;20093;-88
2021/09/10 09:08:23;;;;;;;4.05;3.00;;;26.10;93.10;;;;;;4952122;28;20038;-88
2021/09/10 09:11:02;;;;;;;5.55;3.13;;;26.20;93.30;;;;;;4926959;28;20093;-88
2021/09/10 09:13:32;;;;;;;4.22;2.58;;;26.20;92.80;;;;;;4945605;28;20031;-89
2021/09/10 09:16:23;;;;;;;4.72;2.83;;;26.30;91.70;;;;;;4954330;28;20027;-89
2021/09/10 09:18:56;;;;;;;2.97;2.38;;;26.40;90.90;;;;;;4970421;28;20034;-88
2021/09/10 09:21:28;;;;;;;4.85;2.55;;;26.30;90.80;;;;;;4924528;28;20042;-89
2021/09/10 09:23:56;;;;;;;5.22;2.92;;;26.30;91.20;;;;;;4946321;28;20735;-88
2021/09/10 09:26:24;;;;;;;4.07;3.10;;;26.40;91.20;;;;;;4929059;28;20069;-89
2021/09/10 09:29:02;;;;;;;3.63;2.50;;;26.50;91.80;;;;;;4939529;28;20063;-89
2021/09/10 09:31:27;;;;;;;3.30;2.45;;;26.50;90.70;;;;;;4951471;28;20047;-89
2021/09/10 09:33:53;;;;;;;7.00;2.47;;;26.50;91.00;;;;;;4950830;28;20066;-89
2021/09/10 09:36:19;;;;;;;5.20;2.72;;;26.60;90.50;;;;;;4945054;28;20026;-89
2021/09/10 09:38:45;;;;;;;6.13;3.42;;;26.60;92.90;;;;;;4944179;28;20040;-88
2021/09/10 09:41:11;;;;;;;4.68;2.90;;;26.70;91.60;;;;;;4955295;28;20031;-87
2021/09/10 09:43:40;;;;;;;4.88;2.85;;;26.70;92.70;;;;;;4970935;28;20066;-88
2021/09/10 09:46:07;;;;;;;5.35;2.70;;;26.70;93.00;;;;;;4949004;28;20058;-87
2021/09/10 09:48:36;;;;;;;3.80;3.03;;;26.70;91.80;;;;;;4967730;28;20066;-88
2021/09/10 09:51:01;;;;;;;5.47;3.30;;;26.80;92.20;;;;;;4924415;28;20046;-88
2021/09/10 09:53:27;;;;;;;3.42;3.00;;;26.80;90.60;;;;;;4926014;28;20035;-88
2021/09/10 09:55:53;;;;;;;7.05;3.45;;;26.80;91.40;;;;;;4956111;28;20042;-88
2021/09/10 09:58:19;;;;;;;6.70;3.97;;;27.00;90.50;;;;;;4931926;28;20039;-88
2021/09/10 10:00:47;;;;;;;5.57;3.03;;;27.20;91.50;;;;;;4941081;28;20035;-88
2021/09/10 10:03:12;;;;;;;5.93;3.00;;;27.40;92.30;;;;;;4926128;28;20031;-88
2021/09/10 10:05:56;;;;;;;5.63;2.83;;;27.50;89.60;;;;;;4936208;28;20821;-89
2021/09/10 10:08:23;;;;;;;7.07;3.33;;;27.40;88.40;;;;;;4947079;28;20039;-89
2021/09/10 10:10:55;;;;;;;4.35;3.03;;;27.30;88.70;;;;;;4932220;28;20031;-88
2021/09/10 10:13:32;;;;;;;2.78;2.38;;;27.40;87.90;;;;;;4946960;28;20030;-89
2021/09/10 10:16:03;;;;;;;4.28;2.58;;;27.40;88.70;;;;;;4921925;28;20492;-89
2021/09/10 10:18:47;;;;;;;5.70;2.35;;;27.60;88.40;;;;;;4919789;28;20042;-90
2021/09/10 10:21:13;;;;;;;2.83;2.55;;;27.80;88.30;;;;;;4915079;28;20046;-89
2021/09/10 10:23:49;;;;;;;6.25;3.33;;;27.60;87.80;;;;;;4905434;28;20507;-89
2021/09/10 10:26:23;;;;;;;4.75;3.58;;;27.50;87.90;;;;;;4965914;28;20046;-90
2021/09/10 10:28:54;;;;;;;7.38;3.10;;;27.70;87.50;;;;;;4941560;28;20656;-89
2021/09/10 10:32:04;;;;;;;4.03;3.20;;;27.70;87.20;;;;;;4936473;28;20030;-89
2021/09/10 10:34:53;;;;;;;3.53;2.65;;;27.70;87.80;;;;;;4937622;28;20035;-89
2021/09/10 10:37:36;;;;;;;3.85;3.10;;;27.90;88.40;;;;;;4920665;28;20032;-90
2021/09/10 10:40:24;;;;;;;4.53;2.90;;;28.00;87.60;;;;;;4932139;28;20046;-89
2021/09/10 10:42:50;;;;;;;8.35;2.65;;;28.20;86.50;;;;;;4960147;28;20114;-90
2021/09/10 10:45:42;;;;;;;2.78;2.58;;;28.30;88.00;;;;;;4947325;28;20550;-90
2021/09/10 10:48:32;;;;;;;5.07;2.40;;;28.40;85.90;;;;;;4926572;28;20645;-90
2021/09/10 10:51:13;;;;;;;2.60;2.40;;;28.50;86.60;;;;;;4929242;28;20122;-90
2021/09/10 10:54:07;;;;;;;6.43;3.33;;;28.40;85.20;;;;;;4934063;28;20040;-90
2021/09/10 10:56:41;;;;;;;2.47;2.28;;;28.80;90.10;;;;;;4941636;28;20039;-90
2021/09/10 10:59:17;;;;;;;3.50;2.20;;;29.10;83.90;;;;;;4938856;28;20023;-90
2021/09/10 11:05:42;;;;;;;2.50;2.30;;;29.30;84.20;;;;;;4659575;28;10001281;-91
2021/09/10 11:11:51;;;;;;;6.95;2.75;;;29.20;84.80;;;;;;4882949;29;20546;-89
2021/09/10 11:14:37;;;;;;;4.70;3.00;;;29.20;83.60;;;;;;4857639;29;20060;-90
2021/09/10 11:17:32;;;;;;;4.22;3.03;;;28.80;82.00;;;;;;4842964;29;20029;-92
2021/09/10 11:20:23;;;;;;;4.45;2.65;;;28.60;82.30;;;;;;4855629;29;20092;-92
2021/09/10 11:22:48;;;;;;;3.50;2.60;;;28.40;83.80;;;;;;4894987;28;20038;-92
2021/09/10 11:25:18;;;;;;;3.75;2.20;;;27.80;87.50;;;;;;4941835;28;20467;-91
2021/09/10 11:27:43;;;;;;;1.88;1.65;;;27.20;89.20;;;;;;4937834;28;20035;-90
2021/09/10 11:30:11;;;;;;;2.90;2.20;;;27.30;89.60;;;;;;4924380;28;20039;-90
2021/09/10 11:35:59;;;;;;;2.92;1.83;;;26.40;90.50;;;;;;4968599;28;20058;-88
2021/09/10 11:38:37;;;;;;;3.30;2.28;;;26.10;91.30;;;;;;4917272;28;20028;-89
2021/09/10 11:41:42;;;;;;;2.42;1.77;;;25.80;91.80;;;;;;4907202;28;20056;-88
2021/09/10 11:44:47;;;;;;;2.95;2.50;;;25.70;92.20;;;;;;4911104;28;20043;-89
2021/09/10 11:47:19;;;;;;;2.65;2.10;;;25.50;92.50;;;;;;4956085;28;20089;-90
2021/09/10 11:50:02;;;;;;;2.40;2.15;;;25.50;93.10;;;;;;4946139;28;20035;-89
2021/09/10 11:52:32;;;;;;;2.60;2.38;;;25.40;92.80;;;;;;4932986;29;20075;-89
2021/09/10 11:55:07;;;;;;;2.58;2.30;;;25.30;93.10;;;;;;4928803;28;20491;-88
2021/09/10 11:57:43;;;;;;;4.20;2.45;;;25.40;93.40;;;;;;4927256;28;20471;-88
2021/09/10 12:00:21;;;;;;;4.18;3.00;;;25.40;93.20;;;;;;4924546;28;20447;-88
2021/09/10 12:02:57;;;;;;;4.75;3.53;;;25.60;93.70;;;;;;4935952;28;20449;-88
2021/09/10 12:05:23;;;;;;;;;;;25.80;93.20;;;;;;4936916;28;20035;-88
2021/09/10 12:07:52;;;;;;;6.78;3.17;;;25.80;93.20;;;;;;4942042;28;19918;-88
2021/09/10 12:10:34;;;;;;;3.00;2.50;;;25.90;93.00;;;;;;4920000;28;20031;-89
2021/09/10 12:13:15;;;;;;;4.07;2.90;;;26.00;93.20;;;;;;4940337;28;20037;-89
2021/09/10 12:15:42;;;;;;;2.67;2.47;;;26.20;93.30;;;;;;4904996;29;20044;-88
2021/09/10 12:18:15;;;;;;;3.55;3.25;;;26.20;93.30;;;;;;4939038;28;20042;-89
2021/09/10 12:20:42;;;;;;;3.78;3.05;;;26.60;93.20;;;;;;4930911;28;20120;-89
2021/09/10 12:26:55;;;;;;;3.00;2.63;;;27.00;92.60;;;;;;4919996;28;20051;-89
2021/09/10 12:33:09;;;;;;;4.05;2.55;;;27.20;92.60;;;;;;4904427;28;20039;-90
2021/09/10 12:36:01;;;;;;;4.30;2.70;;;27.30;92.70;;;;;;4900401;28;20050;-89
2021/09/10 12:38:43;;;;;;;4.07;2.80;;;27.30;92.60;;;;;;4909497;28;20035;-89
2021/09/10 12:41:09;;;;;;;5.50;2.65;;;27.20;93.00;;;;;;4945883;28;20030;-89
2021/09/10 12:43:34;;;;;;;4.15;2.80;;;27.30;92.40;;;;;;4944999;28;20077;-89
2021/09/10 12:46:16;;;;;;;3.83;2.78;;;27.40;92.20;;;;;;4938600;28;20050;-89
2021/09/10 12:48:42;;;;;;;2.67;2.47;;;27.50;91.90;;;;;;4937350;28;20038;-88
2021/09/10 12:51:28;;;;;;;4.07;2.42;;;27.50;93.20;;;;;;4939469;28;20118;-89
2021/09/10 12:53:53;;;;;;;;;;;27.70;91.70;;;;;;4935768;28;20031;-88
2021/09/10 12:56:19;;;;;;;3.15;2.45;;;27.80;91.60;;;;;;4951647;28;19937;-89
2021/09/10 12:58:44;;;;;;;3.78;2.60;;;27.90;91.50;;;;;;4945095;28;20372;-89
2021/09/10 13:01:15;;;;;;;3.88;2.28;;;28.10;91.70;;;;;;4925993;28;20484;-89
2021/09/10 13:03:41;;;;;;;2.20;2.00;;;28.10;90.40;;;;;;4906854;29;20042;-89
2021/09/10 13:06:32;;;;;;;2.50;2.33;;;28.20;90.00;;;;;;4922162;28;20043;-89
2021/09/10 13:09:25;;;;;;;2.40;2.20;;;28.30;91.70;;;;;;4885135;28;20042;-90